sensor_id;sensor_type;location;lat;lon;timestamp;pressure;altitude;pressure_sealevel;temperature;humidity
30421;BME280;17218;54.070;10.012;2023-05-25T00:00:08;102201.41;;;10.87;100.00
30421;BME280;17218;54.070;10.012;2023-05-25T00:02:35;102195.34;;;10.86;100.00
30421;BME280;17218;54.070;10.012;2023-05-25T00:05:02;102190.19;;;10.88;100.00
30421;BME280;17218;54.070;10.012;2023-05-25T00:07:28;102192.72;;;10.81;100.00
30421;BME280;17218;54.070;10.012;2023-05-25T00:09:55;102196.03;;;10.72;100.00
30421;BME280;17218;54.070;10.012;2023-05-25T00:12:21;102198.66;;;10.74;100.00
30421;BME280;17218;54.070;10.012;2023-05-25T00:14:49;102206.44;;;10.76;100.00
30421;BME280;17218;54.070;10.012;2023-05-25T00:17:16;102213.16;;;10.64;100.00
30421;BME280;17218;54.070;10.012;2023-05-25T00:19:43;102206.19;;;10.61;100.00
30421;BME280;17218;54.070;10.012;2023-05-25T00:22:09;102202.56;;;10.48;100.00
30421;BME280;17218;54.070;10.012;2023-05-25T00:24:37;102209.28;;;10.40;100.00
30421;BME280;17218;54.070;10.012;2023-05-25T00:27:05;102214.47;;;10.40;100.00
30421;BME280;17218;54.070;10.012;2023-05-25T00:29:32;102213.59;;;10.41;100.00
30421;BME280;17218;54.070;10.012;2023-05-25T00:32:00;102214.59;;;10.46;100.00
30421;BME280;17218;54.070;10.012;2023-05-25T00:34:27;102221.47;;;10.44;100.00
30421;BME280;17218;54.070;10.012;2023-05-25T00:36:53;102217.19;;;10.46;100.00
30421;BME280;17218;54.070;10.012;2023-05-25T00:39:20;102217.19;;;10.46;100.00
30421;BME280;17218;54.070;10.012;2023-05-25T00:41:47;102212.00;;;10.46;100.00
30421;BME280;17218;54.070;10.012;2023-05-25T00:44:15;102210.22;;;10.44;100.00
30421;BME280;17218;54.070;10.012;2023-05-25T00:46:48;102207.50;;;10.37;100.00
30421;BME280;17218;54.070;10.012;2023-05-25T00:49:17;102216.13;;;10.35;100.00
30421;BME280;17218;54.070;10.012;2023-05-25T00:51:44;102216.16;;;10.38;100.00
30421;BME280;17218;54.070;10.012;2023-05-25T00:54:12;102209.16;;;10.34;100.00
30421;BME280;17218;54.070;10.012;2023-05-25T00:56:43;102206.50;;;10.29;100.00
30421;BME280;17218;54.070;10.012;2023-05-25T00:59:12;102206.53;;;10.31;100.00
30421;BME280;17218;54.070;10.012;2023-05-25T01:01:40;102210.84;;;10.30;100.00
30421;BME280;17218;54.070;10.012;2023-05-25T01:04:10;102214.25;;;10.26;100.00
30421;BME280;17218;54.070;10.012;2023-05-25T01:06:43;102206.47;;;10.26;100.00
30421;BME280;17218;54.070;10.012;2023-05-25T01:09:15;102217.66;;;10.25;100.00
30421;BME280;17218;54.070;10.012;2023-05-25T01:11:45;102222.84;;;10.26;100.00
30421;BME280;17218;54.070;10.012;2023-05-25T01:14:17;102217.63;;;10.22;100.00
30421;BME280;17218;54.070;10.012;2023-05-25T01:16:44;102225.41;;;10.23;100.00
30421;BME280;17218;54.070;10.012;2023-05-25T01:19:11;102227.13;;;10.23;100.00
30421;BME280;17218;54.070;10.012;2023-05-25T01:21:41;102215.84;;;10.21;100.00
30421;BME280;17218;54.070;10.012;2023-05-25T01:24:12;102209.84;;;10.22;100.00
30421;BME280;17218;54.070;10.012;2023-05-25T01:26:45;102216.72;;;10.21;100.00
30421;BME280;17218;54.070;10.012;2023-05-25T01:29:13;102210.63;;;10.18;100.00
30421;BME280;17218;54.070;10.012;2023-05-25T01:31:41;102221.94;;;10.23;100.00
30421;BME280;17218;54.070;10.012;2023-05-25T01:34:08;102213.22;;;10.18;100.00
30421;BME280;17218;54.070;10.012;2023-05-25T01:36:36;102208.91;;;10.18;100.00
30421;BME280;17218;54.070;10.012;2023-05-25T01:39:05;102222.69;;;10.17;100.00
30421;BME280;17218;54.070;10.012;2023-05-25T01:41:32;102212.34;;;10.17;100.00
30421;BME280;17218;54.070;10.012;2023-05-25T01:43:58;102223.59;;;10.19;100.00
30421;BME280;17218;54.070;10.012;2023-05-25T01:46:30;102230.53;;;10.20;100.00
30421;BME280;17218;54.070;10.012;2023-05-25T01:49:04;102231.50;;;10.25;100.00
30421;BME280;17218;54.070;10.012;2023-05-25T01:51:38;102228.03;;;10.26;100.00
30421;BME280;17218;54.070;10.012;2023-05-25T01:54:12;102222.78;;;10.20;100.00
30421;BME280;17218;54.070;10.012;2023-05-25T01:56:39;102226.31;;;10.25;100.00
30421;BME280;17218;54.070;10.012;2023-05-25T01:59:11;102222.78;;;10.22;100.00
30421;BME280;17218;54.070;10.012;2023-05-25T02:01:40;102221.03;;;10.21;100.00
30421;BME280;17218;54.070;10.012;2023-05-25T02:04:07;102223.63;;;10.21;100.00
30421;BME280;17218;54.070;10.012;2023-05-25T02:06:34;102226.19;;;10.19;100.00
30421;BME280;17218;54.070;10.012;2023-05-25T02:09:01;102228.72;;;10.16;100.00
30421;BME280;17218;54.070;10.012;2023-05-25T02:11:29;102226.16;;;10.18;100.00
30421;BME280;17218;54.070;10.012;2023-05-25T02:13:55;102229.63;;;10.18;100.00
30421;BME280;17218;54.070;10.012;2023-05-25T02:16:22;102240.00;;;10.20;100.00
30421;BME280;17218;54.070;10.012;2023-05-25T02:18:48;102230.56;;;10.22;100.00
30421;BME280;17218;54.070;10.012;2023-05-25T02:21:15;102239.25;;;10.24;100.00
30421;BME280;17218;54.070;10.012;2023-05-25T02:23:41;102234.97;;;10.26;100.00
30421;BME280;17218;54.070;10.012;2023-05-25T02:26:08;102236.63;;;10.22;100.00
30421;BME280;17218;54.070;10.012;2023-05-25T02:28:36;102234.81;;;10.18;100.00
30421;BME280;17218;54.070;10.012;2023-05-25T02:31:02;102228.78;;;10.19;100.00
30421;BME280;17218;54.070;10.012;2023-05-25T02:33:28;102227.06;;;10.20;100.00
30421;BME280;17218;54.070;10.012;2023-05-25T02:35:55;102229.72;;;10.24;100.00
30421;BME280;17218;54.070;10.012;2023-05-25T02:38:22;102235.75;;;10.22;100.00
30421;BME280;17218;54.070;10.012;2023-05-25T02:40:48;102241.72;;;10.19;100.00
30421;BME280;17218;54.070;10.012;2023-05-25T02:43:14;102232.22;;;10.18;100.00
30421;BME280;17218;54.070;10.012;2023-05-25T02:45:43;102236.66;;;10.25;100.00
30421;BME280;17218;54.070;10.012;2023-05-25T02:48:09;102232.28;;;10.23;100.00
30421;BME280;17218;54.070;10.012;2023-05-25T02:50:36;102240.09;;;10.24;100.00
30421;BME280;17218;54.070;10.012;2023-05-25T02:53:02;102235.78;;;10.25;100.00
30421;BME280;17218;54.070;10.012;2023-05-25T02:55:29;102242.78;;;10.31;100.00
30421;BME280;17218;54.070;10.012;2023-05-25T02:57:55;102246.34;;;10.37;100.00
30421;BME280;17218;54.070;10.012;2023-05-25T03:00:22;102244.66;;;10.38;100.00
30421;BME280;17218;54.070;10.012;2023-05-25T03:02:50;102248.13;;;10.38;100.00
30421;BME280;17218;54.070;10.012;2023-05-25T03:05:16;102248.06;;;10.35;100.00
30421;BME280;17218;54.070;10.012;2023-05-25T03:07:43;102252.38;;;10.35;100.00
30421;BME280;17218;54.070;10.012;2023-05-25T03:10:10;102254.97;;;10.35;100.00
30421;BME280;17218;54.070;10.012;2023-05-25T03:12:37;102261.13;;;10.42;100.00
30421;BME280;17218;54.070;10.012;2023-05-25T03:15:04;102269.06;;;10.48;100.00
30421;BME280;17218;54.070;10.012;2023-05-25T03:17:30;102265.53;;;10.46;100.00
30421;BME280;17218;54.070;10.012;2023-05-25T03:19:58;102272.53;;;10.48;100.00
30421;BME280;17218;54.070;10.012;2023-05-25T03:22:25;102279.31;;;10.45;100.00
30421;BME280;17218;54.070;10.012;2023-05-25T03:24:51;102273.19;;;10.41;100.00
30421;BME280;17218;54.070;10.012;2023-05-25T03:27:18;102275.00;;;10.45;100.00
30421;BME280;17218;54.070;10.012;2023-05-25T03:29:44;102268.00;;;10.41;100.00
30421;BME280;17218;54.070;10.012;2023-05-25T03:32:13;102277.53;;;10.42;100.00
30421;BME280;17218;54.070;10.012;2023-05-25T03:34:40;102269.66;;;10.36;100.00
30421;BME280;17218;54.070;10.012;2023-05-25T03:37:08;102272.25;;;10.37;100.00
30421;BME280;17218;54.070;10.012;2023-05-25T03:39:34;102281.81;;;10.38;100.00
30421;BME280;17218;54.070;10.012;2023-05-25T03:42:01;102273.16;;;10.38;100.00
30421;BME280;17218;54.070;10.012;2023-05-25T03:44:27;102281.78;;;10.37;100.00
30421;BME280;17218;54.070;10.012;2023-05-25T03:46:54;102285.31;;;10.42;100.00
30421;BME280;17218;54.070;10.012;2023-05-25T03:49:20;102290.44;;;10.39;100.00
30421;BME280;17218;54.070;10.012;2023-05-25T03:51:47;102285.38;;;10.47;100.00
30421;BME280;17218;54.070;10.012;2023-05-25T03:54:15;102290.50;;;10.42;100.00
30421;BME280;17218;54.070;10.012;2023-05-25T03:56:41;102292.22;;;10.43;100.00
30421;BME280;17218;54.070;10.012;2023-05-25T03:59:08;102283.63;;;10.43;100.00
30421;BME280;17218;54.070;10.012;2023-05-25T04:01:34;102283.72;;;10.49;100.00
30421;BME280;17218;54.070;10.012;2023-05-25T04:04:02;102290.69;;;10.52;100.00
30421;BME280;17218;54.070;10.012;2023-05-25T04:06:28;102289.00;;;10.54;100.00
30421;BME280;17218;54.070;10.012;2023-05-25T04:08:55;102278.63;;;10.52;100.00
30421;BME280;17218;54.070;10.012;2023-05-25T04:11:23;102289.91;;;10.56;100.00
30421;BME280;17218;54.070;10.012;2023-05-25T04:13:51;102281.31;;;10.58;100.00
30421;BME280;17218;54.070;10.012;2023-05-25T04:16:17;102279.63;;;10.60;100.00
30421;BME280;17218;54.070;10.012;2023-05-25T04:18:45;102284.03;;;10.66;100.00
30421;BME280;17218;54.070;10.012;2023-05-25T04:21:12;102285.84;;;10.70;100.00
30421;BME280;17218;54.070;10.012;2023-05-25T04:23:38;102285.09;;;10.76;100.00
30421;BME280;17218;54.070;10.012;2023-05-25T04:26:05;102286.00;;;10.80;100.00
30421;BME280;17218;54.070;10.012;2023-05-25T04:28:35;102285.19;;;10.84;100.00
30421;BME280;17218;54.070;10.012;2023-05-25T04:31:02;102285.19;;;10.85;100.00
30421;BME280;17218;54.070;10.012;2023-05-25T04:33:29;102283.50;;;10.86;100.00
30421;BME280;17218;54.070;10.012;2023-05-25T04:35:55;102286.06;;;10.84;100.00
30421;BME280;17218;54.070;10.012;2023-05-25T04:38:23;102284.34;;;10.85;100.00
30421;BME280;17218;54.070;10.012;2023-05-25T04:40:50;102293.06;;;10.89;100.00
30421;BME280;17218;54.070;10.012;2023-05-25T04:43:18;102291.50;;;11.00;100.00
30421;BME280;17218;54.070;10.012;2023-05-25T04:45:45;102296.50;;;10.89;100.00
30421;BME280;17218;54.070;10.012;2023-05-25T04:48:12;102300.00;;;10.91;100.00
30421;BME280;17218;54.070;10.012;2023-05-25T04:50:38;102302.69;;;10.97;100.00
30421;BME280;17218;54.070;10.012;2023-05-25T04:53:05;102304.28;;;10.89;100.00
30421;BME280;17218;54.070;10.012;2023-05-25T04:55:31;102308.66;;;10.93;100.00
30421;BME280;17218;54.070;10.012;2023-05-25T04:57:58;102302.75;;;11.02;100.00
30421;BME280;17218;54.070;10.012;2023-05-25T05:00:25;102297.75;;;11.13;100.00
30421;BME280;17218;54.070;10.012;2023-05-25T05:02:53;102304.03;;;11.28;100.00
30421;BME280;17218;54.070;10.012;2023-05-25T05:05:20;102298.00;;;11.32;100.00
30421;BME280;17218;54.070;10.012;2023-05-25T05:07:47;102305.84;;;11.33;100.00
30421;BME280;17218;54.070;10.012;2023-05-25T05:10:13;102298.91;;;11.34;100.00
30421;BME280;17218;54.070;10.012;2023-05-25T05:12:40;102310.28;;;11.41;100.00
30421;BME280;17218;54.070;10.012;2023-05-25T05:15:07;102307.84;;;11.52;100.00
30421;BME280;17218;54.070;10.012;2023-05-25T05:17:33;102314.75;;;11.53;100.00
30421;BME280;17218;54.070;10.012;2023-05-25T05:20:01;102310.47;;;11.55;100.00
30421;BME280;17218;54.070;10.012;2023-05-25T05:22:32;102315.75;;;11.61;100.00
30421;BME280;17218;54.070;10.012;2023-05-25T05:24:58;102307.88;;;11.56;100.00
30421;BME280;17218;54.070;10.012;2023-05-25T05:27:25;102310.44;;;11.52;100.00
30421;BME280;17218;54.070;10.012;2023-05-25T05:29:52;102319.16;;;11.57;100.00
30421;BME280;17218;54.070;10.012;2023-05-25T05:32:18;102320.94;;;11.61;100.00
30421;BME280;17218;54.070;10.012;2023-05-25T05:34:45;102324.28;;;11.54;100.00
30421;BME280;17218;54.070;10.012;2023-05-25T05:37:12;102317.56;;;11.68;100.00
30421;BME280;17218;54.070;10.012;2023-05-25T05:39:39;102316.75;;;11.74;100.00
30421;BME280;17218;54.070;10.012;2023-05-25T05:42:06;102323.72;;;11.75;100.00
30421;BME280;17218;54.070;10.012;2023-05-25T05:44:33;102326.44;;;11.85;100.00
30421;BME280;17218;54.070;10.012;2023-05-25T05:47:00;102323.94;;;11.94;100.00
30421;BME280;17218;54.070;10.012;2023-05-25T05:49:26;102320.56;;;12.01;100.00
30421;BME280;17218;54.070;10.012;2023-05-25T05:51:53;102319.72;;;12.02;100.00
30421;BME280;17218;54.070;10.012;2023-05-25T05:54:21;102324.06;;;12.05;100.00
30421;BME280;17218;54.070;10.012;2023-05-25T05:56:48;102323.97;;;11.97;100.00
30421;BME280;17218;54.070;10.012;2023-05-25T05:59:14;102322.38;;;12.05;100.00
30421;BME280;17218;54.070;10.012;2023-05-25T06:01:41;102332.03;;;12.14;100.00
30421;BME280;17218;54.070;10.012;2023-05-25T06:04:07;102334.63;;;12.16;100.00
30421;BME280;17218;54.070;10.012;2023-05-25T06:06:34;102337.22;;;12.16;100.00
30421;BME280;17218;54.070;10.012;2023-05-25T06:09:01;102339.97;;;12.30;100.00
30421;BME280;17218;54.070;10.012;2023-05-25T06:11:32;102338.50;;;12.54;100.00
30421;BME280;17218;54.070;10.012;2023-05-25T06:14:00;102344.59;;;12.58;100.00
30421;BME280;17218;54.070;10.012;2023-05-25T06:16:27;102347.28;;;12.66;100.00
30421;BME280;17218;54.070;10.012;2023-05-25T06:18:53;102340.47;;;12.80;100.00
30421;BME280;17218;54.070;10.012;2023-05-25T06:21:20;102342.25;;;12.86;100.00
30421;BME280;17218;54.070;10.012;2023-05-25T06:23:46;102335.44;;;12.99;100.00
30421;BME280;17218;54.070;10.012;2023-05-25T06:26:13;102344.13;;;12.99;100.00
30421;BME280;17218;54.070;10.012;2023-05-25T06:28:41;102336.31;;;13.03;100.00
30421;BME280;17218;54.070;10.012;2023-05-25T06:31:07;102341.63;;;13.15;100.00
30421;BME280;17218;54.070;10.012;2023-05-25T06:33:34;102345.16;;;13.25;100.00
30421;BME280;17218;54.070;10.012;2023-05-25T06:36:00;102335.72;;;13.40;100.00
30421;BME280;17218;54.070;10.012;2023-05-25T06:38:27;102339.16;;;13.35;100.00
30421;BME280;17218;54.070;10.012;2023-05-25T06:40:53;102337.50;;;13.44;100.00
30421;BME280;17218;54.070;10.012;2023-05-25T06:43:20;102332.28;;;13.44;100.00
30421;BME280;17218;54.070;10.012;2023-05-25T06:45:48;102335.84;;;13.54;100.00
30421;BME280;17218;54.070;10.012;2023-05-25T06:48:14;102337.66;;;13.67;100.00
30421;BME280;17218;54.070;10.012;2023-05-25T06:50:41;102337.75;;;13.83;100.00
30421;BME280;17218;54.070;10.012;2023-05-25T06:53:07;102341.22;;;13.87;100.00
30421;BME280;17218;54.070;10.012;2023-05-25T06:55:35;102343.00;;;13.97;100.00
30421;BME280;17218;54.070;10.012;2023-05-25T06:58:01;102347.41;;;14.11;100.00
30421;BME280;17218;54.070;10.012;2023-05-25T07:00:28;102350.00;;;14.14;100.00
30421;BME280;17218;54.070;10.012;2023-05-25T07:02:56;102352.66;;;14.25;100.00
30421;BME280;17218;54.070;10.012;2023-05-25T07:05:22;102358.72;;;14.22;100.00
30421;BME280;17218;54.070;10.012;2023-05-25T07:07:49;102347.44;;;14.26;100.00
30421;BME280;17218;54.070;10.012;2023-05-25T07:10:16;102359.66;;;14.43;100.00
30421;BME280;17218;54.070;10.012;2023-05-25T07:12:42;102359.69;;;14.49;100.00
30421;BME280;17218;54.070;10.012;2023-05-25T07:15:09;102364.91;;;14.48;100.00
30421;BME280;17218;54.070;10.012;2023-05-25T07:17:37;102365.75;;;14.50;100.00
30421;BME280;17218;54.070;10.012;2023-05-25T07:20:06;102364.00;;;14.46;100.00
30421;BME280;17218;54.070;10.012;2023-05-25T07:22:34;102359.66;;;14.46;100.00
30421;BME280;17218;54.070;10.012;2023-05-25T07:25:01;102365.75;;;14.45;100.00
30421;BME280;17218;54.070;10.012;2023-05-25T07:27:28;102362.25;;;14.38;100.00
30421;BME280;17218;54.070;10.012;2023-05-25T07:29:55;102361.34;;;14.24;100.00
30421;BME280;17218;54.070;10.012;2023-05-25T07:32:22;102371.75;;;14.19;100.00
30421;BME280;17218;54.070;10.012;2023-05-25T07:34:48;102371.69;;;14.11;100.00
30421;BME280;17218;54.070;10.012;2023-05-25T07:37:16;102376.91;;;14.08;100.00
30421;BME280;17218;54.070;10.012;2023-05-25T07:39:42;102368.25;;;14.15;100.00
30421;BME280;17218;54.070;10.012;2023-05-25T07:42:09;102374.41;;;14.33;100.00
30421;BME280;17218;54.070;10.012;2023-05-25T07:44:35;102369.22;;;14.52;100.00
30421;BME280;17218;54.070;10.012;2023-05-25T07:47:02;102370.09;;;14.55;100.00
30421;BME280;17218;54.070;10.012;2023-05-25T07:49:30;102370.97;;;14.56;100.00
30421;BME280;17218;54.070;10.012;2023-05-25T07:51:57;102369.25;;;14.69;100.00
30421;BME280;17218;54.070;10.012;2023-05-25T07:54:25;102367.56;;;14.77;100.00
30421;BME280;17218;54.070;10.012;2023-05-25T07:56:51;102367.56;;;14.87;100.00
30421;BME280;17218;54.070;10.012;2023-05-25T07:59:18;102373.66;;;14.84;100.00
30421;BME280;17218;54.070;10.012;2023-05-25T08:01:44;102366.69;;;15.13;100.00
30421;BME280;17218;54.070;10.012;2023-05-25T08:04:11;102376.28;;;15.06;100.00
30421;BME280;17218;54.070;10.012;2023-05-25T08:06:37;102379.78;;;15.05;100.00
30421;BME280;17218;54.070;10.012;2023-05-25T08:09:04;102381.50;;;15.01;100.00
30421;BME280;17218;54.070;10.012;2023-05-25T08:11:33;102389.34;;;15.01;100.00
30421;BME280;17218;54.070;10.012;2023-05-25T08:14:00;102378.03;;;15.02;100.00
30421;BME280;17218;54.070;10.012;2023-05-25T08:16:26;102403.22;;;14.94;100.00
30421;BME280;17218;54.070;10.012;2023-05-25T08:18:53;102400.63;;;14.97;100.00
30421;BME280;17218;54.070;10.012;2023-05-25T08:21:19;102404.09;;;15.06;100.00
30421;BME280;17218;54.070;10.012;2023-05-25T08:23:46;102407.59;;;15.05;100.00
30421;BME280;17218;54.070;10.012;2023-05-25T08:26:14;102399.75;;;15.08;100.00
30421;BME280;17218;54.070;10.012;2023-05-25T08:28:42;102405.88;;;15.19;100.00
30421;BME280;17218;54.070;10.012;2023-05-25T08:31:09;102404.13;;;15.40;100.00
30421;BME280;17218;54.070;10.012;2023-05-25T08:33:36;102404.03;;;15.81;100.00
30421;BME280;17218;54.070;10.012;2023-05-25T08:36:03;102404.84;;;16.16;100.00
30421;BME280;17218;54.070;10.012;2023-05-25T08:38:29;102404.75;;;16.35;100.00
30421;BME280;17218;54.070;10.012;2023-05-25T08:41:02;102405.56;;;16.41;100.00
30421;BME280;17218;54.070;10.012;2023-05-25T08:43:30;102401.16;;;16.50;100.00
30421;BME280;17218;54.070;10.012;2023-05-25T08:46:02;102406.25;;;16.70;100.00
30421;BME280;17218;54.070;10.012;2023-05-25T08:48:30;102410.34;;;17.09;100.00
30421;BME280;17218;54.070;10.012;2023-05-25T08:51:00;102407.59;;;17.29;100.00
30421;BME280;17218;54.070;10.012;2023-05-25T08:53:29;102408.28;;;17.53;100.00
30421;BME280;17218;54.070;10.012;2023-05-25T08:55:58;102407.09;;;17.79;100.00
30421;BME280;17218;54.070;10.012;2023-05-25T08:58:29;102415.72;;;17.91;100.00
30421;BME280;17218;54.070;10.012;2023-05-25T09:01:03;102407.09;;;17.82;100.00
30421;BME280;17218;54.070;10.012;2023-05-25T09:03:33;102421.91;;;17.83;100.00
30421;BME280;17218;54.070;10.012;2023-05-25T09:06:01;102421.03;;;17.86;100.00
30421;BME280;17218;54.070;10.012;2023-05-25T09:08:28;102414.97;;;17.77;100.00
30421;BME280;17218;54.070;10.012;2023-05-25T09:10:56;102412.34;;;17.79;100.00
30421;BME280;17218;54.070;10.012;2023-05-25T09:13:22;102419.13;;;17.99;100.00
30421;BME280;17218;54.070;10.012;2023-05-25T09:15:49;102413.75;;;18.10;100.00
30421;BME280;17218;54.070;10.012;2023-05-25T09:18:17;102409.25;;;18.23;100.00
30421;BME280;17218;54.070;10.012;2023-05-25T09:20:44;102413.44;;;18.36;100.00
30421;BME280;17218;54.070;10.012;2023-05-25T09:23:10;102408.94;;;18.46;100.00
30421;BME280;17218;54.070;10.012;2023-05-25T09:25:37;102417.66;;;18.48;100.00
30421;BME280;17218;54.070;10.012;2023-05-25T09:28:06;102421.44;;;18.26;100.00
30421;BME280;17218;54.070;10.012;2023-05-25T09:30:33;102422.44;;;18.14;100.00
30421;BME280;17218;54.070;10.012;2023-05-25T09:33:08;102423.91;;;18.36;100.00
30421;BME280;17218;54.070;10.012;2023-05-25T09:35:36;102436.25;;;18.30;100.00
30421;BME280;17218;54.070;10.012;2023-05-25T09:38:03;102433.41;;;18.47;100.00
30421;BME280;17218;54.070;10.012;2023-05-25T09:40:32;102432.47;;;18.51;100.00
30421;BME280;17218;54.070;10.012;2023-05-25T09:42:59;102419.16;;;18.65;100.00
30421;BME280;17218;54.070;10.012;2023-05-25T09:45:26;102417.34;;;18.70;100.00
30421;BME280;17218;54.070;10.012;2023-05-25T09:47:53;102421.38;;;18.92;100.00
30421;BME280;17218;54.070;10.012;2023-05-25T09:50:20;102431.72;;;19.03;100.00
30421;BME280;17218;54.070;10.012;2023-05-25T09:52:48;102436.91;;;19.07;100.00
30421;BME280;17218;54.070;10.012;2023-05-25T09:55:15;102434.22;;;19.12;100.00
30421;BME280;17218;54.070;10.012;2023-05-25T09:57:42;102431.56;;;19.15;100.00
30421;BME280;17218;54.070;10.012;2023-05-25T10:00:09;102427.72;;;19.35;100.00
30421;BME280;17218;54.070;10.012;2023-05-25T10:02:37;102429.41;;;19.39;100.00
30421;BME280;17218;54.070;10.012;2023-05-25T10:05:04;102426.78;;;19.39;100.00
30421;BME280;17218;54.070;10.012;2023-05-25T10:07:31;102427.72;;;19.35;100.00
30421;BME280;17218;54.070;10.012;2023-05-25T10:10:05;102426.94;;;19.30;100.00
30421;BME280;17218;54.070;10.012;2023-05-25T10:12:32;102437.75;;;19.10;93.86
30421;BME280;17218;54.070;10.012;2023-05-25T10:15:01;102439.56;;;19.06;100.00
30421;BME280;17218;54.070;10.012;2023-05-25T10:17:30;102430.72;;;19.12;100.00
30421;BME280;17218;54.070;10.012;2023-05-25T10:19:59;102433.16;;;19.24;100.00
30421;BME280;17218;54.070;10.012;2023-05-25T10:22:31;102434.59;;;19.42;100.00
30421;BME280;17218;54.070;10.012;2023-05-25T10:25:05;102434.44;;;19.52;97.33
30421;BME280;17218;54.070;10.012;2023-05-25T10:27:37;102433.53;;;19.54;96.98
30421;BME280;17218;54.070;10.012;2023-05-25T10:30:05;102423.09;;;19.48;100.00
30421;BME280;17218;54.070;10.012;2023-05-25T10:32:33;102427.44;;;19.51;100.00
30421;BME280;17218;54.070;10.012;2023-05-25T10:35:04;102424.44;;;19.71;98.58
30421;BME280;17218;54.070;10.012;2023-05-25T10:37:32;102417.66;;;19.59;93.85
30421;BME280;17218;54.070;10.012;2023-05-25T10:40:00;102414.91;;;19.64;92.19
30421;BME280;17218;54.070;10.012;2023-05-25T10:42:28;102412.72;;;19.88;100.00
30421;BME280;17218;54.070;10.012;2023-05-25T10:44:56;102417.38;;;20.19;100.00
30421;BME280;17218;54.070;10.012;2023-05-25T10:47:23;102420.97;;;20.15;84.20
30421;BME280;17218;54.070;10.012;2023-05-25T10:49:51;102419.47;;;20.01;91.96
30421;BME280;17218;54.070;10.012;2023-05-25T10:52:18;102417.16;;;20.29;96.67
30421;BME280;17218;54.070;10.012;2023-05-25T10:54:45;102414.25;;;20.43;88.13
30421;BME280;17218;54.070;10.012;2023-05-25T10:57:17;102414.66;;;20.62;88.05
30421;BME280;17218;54.070;10.012;2023-05-25T10:59:48;102406.00;;;20.96;84.48
30421;BME280;17218;54.070;10.012;2023-05-25T11:02:15;102409.38;;;21.37;91.26
30421;BME280;17218;54.070;10.012;2023-05-25T11:04:46;102398.59;;;21.78;84.57
30421;BME280;17218;54.070;10.012;2023-05-25T11:07:15;102413.72;;;22.03;77.53
30421;BME280;17218;54.070;10.012;2023-05-25T11:09:55;102405.75;;;22.04;80.47
30421;BME280;17218;54.070;10.012;2023-05-25T11:12:21;102405.03;;;22.30;76.96
30421;BME280;17218;54.070;10.012;2023-05-25T11:15:14;102411.56;;;22.46;71.22
30421;BME280;17218;54.070;10.012;2023-05-25T11:17:59;102414.06;;;22.80;74.20
30421;BME280;17218;54.070;10.012;2023-05-25T11:20:27;102402.84;;;23.26;70.90
30421;BME280;17218;54.070;10.012;2023-05-25T11:22:56;102403.84;;;23.49;62.62
30421;BME280;17218;54.070;10.012;2023-05-25T11:25:37;102405.66;;;23.21;63.98
30421;BME280;17218;54.070;10.012;2023-05-25T11:28:04;102405.72;;;23.70;63.50
30421;BME280;17218;54.070;10.012;2023-05-25T11:30:33;102400.25;;;24.23;65.23
30421;BME280;17218;54.070;10.012;2023-05-25T11:33:01;102398.13;;;24.76;59.98
30421;BME280;17218;54.070;10.012;2023-05-25T11:35:28;102400.56;;;25.24;60.24
30421;BME280;17218;54.070;10.012;2023-05-25T11:37:57;102396.28;;;25.62;56.25
30421;BME280;17218;54.070;10.012;2023-05-25T11:40:28;102392.34;;;26.09;50.67
30421;BME280;17218;54.070;10.012;2023-05-25T11:42:55;102393.78;;;26.36;49.23
30421;BME280;17218;54.070;10.012;2023-05-25T11:45:27;102395.09;;;26.82;52.46
30421;BME280;17218;54.070;10.012;2023-05-25T11:47:56;102389.44;;;27.92;47.30
30421;BME280;17218;54.070;10.012;2023-05-25T11:50:23;102387.38;;;28.91;41.90
30421;BME280;17218;54.070;10.012;2023-05-25T11:52:49;102401.66;;;29.79;40.31
30421;BME280;17218;54.070;10.012;2023-05-25T11:55:16;102391.72;;;30.51;37.32
30421;BME280;17218;54.070;10.012;2023-05-25T11:57:42;102391.88;;;31.28;35.32
30421;BME280;17218;54.070;10.012;2023-05-25T12:00:10;102383.22;;;31.24;32.90
30421;BME280;17218;54.070;10.012;2023-05-25T12:02:38;102391.53;;;31.96;34.72
30421;BME280;17218;54.070;10.012;2023-05-25T12:05:06;102384.09;;;32.85;32.17
30421;BME280;17218;54.070;10.012;2023-05-25T12:07:33;102390.09;;;33.00;31.11
30421;BME280;17218;54.070;10.012;2023-05-25T12:10:04;102376.31;;;34.07;31.24
30421;BME280;17218;54.070;10.012;2023-05-25T12:12:39;102390.50;;;35.16;30.23
30421;BME280;17218;54.070;10.012;2023-05-25T12:15:07;102382.25;;;35.80;27.12
30421;BME280;17218;54.070;10.012;2023-05-25T12:17:35;102371.59;;;36.38;26.25
30421;BME280;17218;54.070;10.012;2023-05-25T12:20:01;102374.00;;;36.21;26.72
30421;BME280;17218;54.070;10.012;2023-05-25T12:22:31;102376.72;;;36.41;27.38
30421;BME280;17218;54.070;10.012;2023-05-25T12:24:58;102382.16;;;36.89;26.97
30421;BME280;17218;54.070;10.012;2023-05-25T12:27:24;102377.34;;;36.83;26.53
30421;BME280;17218;54.070;10.012;2023-05-25T12:29:51;102367.00;;;37.44;26.78
30421;BME280;17218;54.070;10.012;2023-05-25T12:32:18;102366.72;;;38.21;25.73